Time;durP1;ratioP1;P1;durP2;ratioP2;P2;SDS_P1;SDS_P2;PMS_P1;PMS_P2;Temp;Humidity;BMP_temperature;BMP_pressure;BME280_temperature;BME280_humidity;BME280_pressure;Samples;Min_cycle;Max_cycle;Signal;HPM_P1;HPM_P2
2022/01/27 00:02:19;;;;;;;71.13;32.23;;;5.20;99.90;;;;;;5053812;28;20325;-62
2022/01/27 00:05:02;;;;;;;70.30;32.53;;;5.30;99.90;;;;;;5069251;28;20469;-62
2022/01/27 00:07:30;;;;;;;74.40;34.10;;;5.30;99.90;;;;;;5069426;28;20468;-62
2022/01/27 00:10:12;;;;;;;76.20;33.80;;;5.30;99.90;;;;;;5057293;28;20534;-63
2022/01/27 00:12:42;;;;;;;72.83;31.50;;;5.30;99.90;;;;;;5057396;28;20469;-62
2022/01/27 00:15:12;;;;;;;65.73;31.50;;;5.30;99.90;;;;;;5033673;28;20479;-62
2022/01/27 00:17:45;;;;;;;65.80;32.87;;;5.30;99.90;;;;;;5041584;28;20468;-62
2022/01/27 00:20:15;;;;;;;72.57;33.73;;;5.30;99.90;;;;;;5043220;28;20286;-62
2022/01/27 00:22:44;;;;;;;73.50;35.03;;;5.30;99.90;;;;;;5033320;28;22015;-62
2022/01/27 00:25:13;;;;;;;75.23;35.33;;;5.30;99.90;;;;;;5053312;28;20478;-62
2022/01/27 00:27:41;;;;;;;74.80;34.60;;;5.40;99.90;;;;;;5054255;28;20499;-62
2022/01/27 00:30:10;;;;;;;70.23;33.60;;;5.40;99.90;;;;;;5072528;28;20314;-62
2022/01/27 00:32:39;;;;;;;65.03;31.20;;;5.40;99.90;;;;;;5073085;28;20227;-62
2022/01/27 00:35:07;;;;;;;68.50;32.63;;;5.40;99.90;;;;;;5073106;28;20703;-62
2022/01/27 00:37:37;;;;;;;68.57;33.07;;;5.40;99.90;;;;;;5071513;28;20331;-62
2022/01/27 00:40:08;;;;;;;65.67;34.03;;;5.40;99.90;;;;;;5044436;28;20243;-62
2022/01/27 00:42:36;;;;;;;65.50;30.63;;;5.40;99.90;;;;;;5033265;28;20343;-62
2022/01/27 00:45:05;;;;;;;70.37;33.83;;;5.40;99.90;;;;;;5071745;28;20266;-62
2022/01/27 00:47:34;;;;;;;72.20;35.07;;;5.40;99.90;;;;;;5068772;28;20274;-62
2022/01/27 00:50:03;;;;;;;72.40;35.03;;;5.30;99.90;;;;;;5068627;28;20480;-62
2022/01/27 00:52:37;;;;;;;76.97;36.60;;;5.30;99.90;;;;;;5072631;28;20470;-63
2022/01/27 00:55:09;;;;;;;68.53;33.90;;;5.30;99.90;;;;;;5072799;28;20322;-62
2022/01/27 00:57:51;;;;;;;70.50;33.17;;;5.30;99.90;;;;;;5071330;28;21013;-62
2022/01/27 01:00:26;;;;;;;67.20;35.10;;;5.30;99.90;;;;;;5040197;28;20238;-62
2022/01/27 01:02:59;;;;;;;75.47;36.67;;;5.30;99.90;;;;;;5052896;28;20462;-62
2022/01/27 01:05:44;;;;;;;69.77;33.93;;;5.30;99.90;;;;;;5052618;28;20322;-63
2022/01/27 01:08:50;;;;;;;76.30;35.50;;;5.30;99.90;;;;;;5066046;28;20338;-62
2022/01/27 01:11:37;;;;;;;73.70;34.03;;;5.30;99.90;;;;;;5052513;28;20489;-62
2022/01/27 01:14:32;;;;;;;67.87;33.80;;;5.30;99.90;;;;;;5063215;28;20235;-62
2022/01/27 01:17:06;;;;;;;71.63;36.27;;;5.30;99.90;;;;;;5072701;28;20476;-62
2022/01/27 01:19:48;;;;;;;76.27;35.27;;;5.30;99.90;;;;;;5051306;28;20496;-62
2022/01/27 01:30:47;;;;;;;62.90;33.17;;;5.30;99.90;;;;;;5051651;28;20482;-62
2022/01/27 01:33:21;;;;;;;68.00;34.80;;;5.30;99.90;;;;;;5052067;28;20480;-62
2022/01/27 01:35:51;;;;;;;62.83;33.73;;;5.30;99.90;;;;;;5052063;28;20632;-62
2022/01/27 01:38:21;;;;;;;64.23;34.07;;;5.20;99.90;;;;;;5056507;28;20833;-62
2022/01/27 01:40:52;;;;;;;70.33;34.87;;;5.30;99.90;;;;;;5071011;28;20989;-62
2022/01/27 01:43:22;;;;;;;62.67;33.30;;;5.20;99.90;;;;;;5066718;28;20477;-62
2022/01/27 01:45:50;;;;;;;59.97;32.63;;;5.30;99.90;;;;;;5051813;28;20239;-62
2022/01/27 01:48:19;;;;;;;63.60;33.47;;;5.30;99.90;;;;;;5057543;28;20508;-62
2022/01/27 01:50:48;;;;;;;58.80;34.40;;;5.20;99.90;;;;;;5071510;28;20595;-62
2022/01/27 01:53:17;;;;;;;66.50;33.23;;;5.30;99.90;;;;;;5069476;28;20477;-62
2022/01/27 01:55:46;;;;;;;62.13;33.37;;;5.30;99.90;;;;;;5043646;28;20247;-62
2022/01/27 01:58:14;;;;;;;56.57;31.10;;;5.30;99.90;;;;;;5064957;28;20473;-62
2022/01/27 02:00:43;;;;;;;59.47;32.20;;;5.30;99.90;;;;;;5051016;28;20565;-62
2022/01/27 02:03:11;;;;;;;62.23;33.03;;;5.30;99.90;;;;;;5046966;28;20244;-62
2022/01/27 02:05:46;;;;;;;63.70;33.67;;;5.30;99.90;;;;;;5065459;28;20977;-63
2022/01/27 02:08:38;;;;;;;61.50;32.37;;;5.30;99.90;;;;;;5026427;28;20578;-62
2022/01/27 02:19:28;;;;;;;56.80;31.13;;;5.30;99.90;;;;;;5041136;28;20477;-62
2022/01/27 02:22:00;;;;;;;54.53;31.97;;;5.30;99.90;;;;;;5070769;28;21000;-62
2022/01/27 02:24:30;;;;;;;56.57;31.67;;;5.30;99.90;;;;;;5070791;28;20469;-62
2022/01/27 02:26:59;;;;;;;59.90;32.50;;;5.30;99.90;;;;;;5060732;28;20902;-62
2022/01/27 02:29:28;;;;;;;54.37;29.00;;;5.30;99.90;;;;;;5064561;28;20476;-62
2022/01/27 02:32:00;;;;;;;57.83;30.80;;;5.30;99.90;;;;;;5070912;28;20563;-62
2022/01/27 02:34:28;;;;;;;52.67;31.30;;;5.30;99.90;;;;;;5070345;28;20610;-62
2022/01/27 02:36:58;;;;;;;54.93;30.97;;;5.30;99.90;;;;;;5058517;28;20561;-62
2022/01/27 02:39:26;;;;;;;58.03;31.10;;;5.30;99.90;;;;;;5058436;28;20330;-62
2022/01/27 02:42:01;;;;;;;56.13;29.33;;;5.30;99.90;;;;;;5070924;28;20292;-62
2022/01/27 02:44:34;;;;;;;51.80;29.33;;;5.30;99.90;;;;;;5056739;28;20418;-62
2022/01/27 02:47:04;;;;;;;56.97;29.43;;;5.30;99.90;;;;;;5054079;28;20504;-62
2022/01/27 02:49:32;;;;;;;53.80;29.63;;;5.40;99.90;;;;;;5060631;28;20477;-62
2022/01/27 02:52:01;;;;;;;52.57;30.03;;;5.40;99.90;;;;;;5070581;28;20481;-62
2022/01/27 02:54:29;;;;;;;53.97;29.63;;;5.30;99.90;;;;;;5070618;28;20468;-62
2022/01/27 02:57:19;;;;;;;50.67;30.50;;;5.30;99.90;;;;;;5053733;28;20247;-63
2022/01/27 02:59:47;;;;;;;52.60;29.23;;;5.40;99.90;;;;;;5050271;28;20322;-62
2022/01/27 03:02:16;;;;;;;54.00;30.83;;;5.40;99.90;;;;;;5049120;28;20688;-62
2022/01/27 03:04:45;;;;;;;52.70;29.37;;;5.30;99.90;;;;;;5050716;28;20478;-62
2022/01/27 03:07:16;;;;;;;53.63;30.10;;;5.40;99.90;;;;;;5050380;28;20466;-62
2022/01/27 03:09:44;;;;;;;52.40;29.77;;;5.40;99.90;;;;;;5050629;28;20356;-62
2022/01/27 03:12:12;;;;;;;56.73;28.83;;;5.40;99.90;;;;;;5050640;28;20541;-62
2022/01/27 03:14:42;;;;;;;54.53;30.53;;;5.40;99.90;;;;;;5050134;28;20883;-62
2022/01/27 03:17:11;;;;;;;54.50;30.77;;;5.40;99.90;;;;;;5061782;28;20523;-62
2022/01/27 03:19:40;;;;;;;55.97;29.47;;;5.40;99.90;;;;;;5070093;28;20456;-62
2022/01/27 03:22:09;;;;;;;55.17;30.87;;;5.40;99.90;;;;;;5070650;28;20329;-62
2022/01/27 03:24:39;;;;;;;58.73;29.80;;;5.40;99.90;;;;;;5055127;28;20545;-62
2022/01/27 03:27:14;;;;;;;52.77;29.03;;;5.40;99.90;;;;;;5054165;28;20260;-62
2022/01/27 03:29:42;;;;;;;51.90;27.37;;;5.40;99.90;;;;;;5065934;28;20871;-62
2022/01/27 03:32:10;;;;;;;50.30;29.13;;;5.40;99.90;;;;;;5070304;28;20478;-62
2022/01/27 03:34:38;;;;;;;51.87;30.37;;;5.40;99.90;;;;;;5070271;28;20273;-62
2022/01/27 03:37:07;;;;;;;49.43;29.03;;;5.40;99.90;;;;;;5058793;28;20231;-62
2022/01/27 03:39:37;;;;;;;51.13;28.77;;;5.40;99.90;;;;;;5049492;28;20244;-62
2022/01/27 03:42:08;;;;;;;46.53;27.17;;;5.40;99.90;;;;;;5050236;28;20297;-62
2022/01/27 03:44:36;;;;;;;52.40;28.97;;;5.40;99.90;;;;;;5064909;28;20488;-62
2022/01/27 03:47:05;;;;;;;52.03;29.07;;;5.30;99.90;;;;;;5059294;28;20522;-62
2022/01/27 03:49:33;;;;;;;50.30;30.43;;;5.30;99.90;;;;;;5050010;28;21043;-62
2022/01/27 03:52:02;;;;;;;52.77;28.50;;;5.30;99.90;;;;;;5050128;28;20484;-62
2022/01/27 03:54:31;;;;;;;52.97;29.00;;;5.30;99.90;;;;;;5065813;28;20989;-62
2022/01/27 03:57:00;;;;;;;50.00;27.97;;;5.30;99.90;;;;;;5054346;28;20480;-62
2022/01/27 03:59:30;;;;;;;51.00;29.27;;;5.30;99.90;;;;;;5049436;28;20608;-62
2022/01/27 04:01:58;;;;;;;53.60;29.63;;;5.20;99.90;;;;;;5067986;28;20502;-64
2022/01/27 04:04:29;;;;;;;49.73;29.23;;;5.20;99.90;;;;;;5068689;28;20506;-65
2022/01/27 04:06:59;;;;;;;52.97;29.70;;;5.20;99.90;;;;;;5057864;28;20535;-65
2022/01/27 04:09:28;;;;;;;47.57;28.63;;;5.30;99.90;;;;;;5071346;28;20890;-65
2022/01/27 04:11:56;;;;;;;51.83;30.00;;;5.20;99.90;;;;;;5073885;28;20473;-64
2022/01/27 04:14:24;;;;;;;51.97;28.03;;;5.20;99.90;;;;;;5060425;28;20481;-64
2022/01/27 04:16:54;;;;;;;53.13;29.67;;;5.20;99.90;;;;;;5056202;28;20552;-64
2022/01/27 04:19:22;;;;;;;50.53;29.90;;;5.20;99.90;;;;;;5062155;28;20508;-64
2022/01/27 04:21:51;;;;;;;50.27;29.10;;;5.20;99.90;;;;;;5073675;28;20476;-65
2022/01/27 04:24:19;;;;;;;53.47;31.17;;;5.20;99.90;;;;;;5060432;28;20501;-65
2022/01/27 04:26:52;;;;;;;49.90;29.40;;;5.20;99.90;;;;;;5057342;28;20476;-64
2022/01/27 04:29:22;;;;;;;48.87;27.40;;;5.20;99.90;;;;;;5065726;28;20522;-64
2022/01/27 04:31:51;;;;;;;50.53;28.63;;;5.20;99.90;;;;;;5073273;28;20234;-65
2022/01/27 04:34:21;;;;;;;47.33;28.37;;;5.20;99.90;;;;;;5072346;28;20484;-65
2022/01/27 04:36:49;;;;;;;46.23;28.63;;;5.20;99.90;;;;;;5057300;28;20523;-64
2022/01/27 04:39:23;;;;;;;50.40;29.90;;;5.20;99.90;;;;;;5053339;28;20568;-64
2022/01/27 04:41:57;;;;;;;48.90;29.03;;;5.20;99.90;;;;;;5052828;28;20231;-65
2022/01/27 04:44:31;;;;;;;45.87;27.30;;;5.20;99.90;;;;;;5064663;28;20493;-64
2022/01/27 04:47:05;;;;;;;45.07;27.23;;;5.10;99.90;;;;;;5054931;28;20322;-64
2022/01/27 04:49:34;;;;;;;50.57;30.07;;;5.20;99.90;;;;;;5067260;28;20473;-64
2022/01/27 04:52:04;;;;;;;48.37;29.07;;;5.10;99.90;;;;;;5073215;28;20242;-64
2022/01/27 04:54:37;;;;;;;53.20;30.57;;;5.10;99.90;;;;;;5059526;28;20510;-64
2022/01/27 04:57:07;;;;;;;50.63;29.40;;;5.10;99.90;;;;;;5054055;28;20650;-64
2022/01/27 04:59:39;;;;;;;52.17;29.67;;;5.20;99.90;;;;;;5054377;28;20512;-64
2022/01/27 05:02:14;;;;;;;47.27;27.93;;;5.10;99.90;;;;;;5072789;28;20242;-64
2022/01/27 05:04:49;;;;;;;47.47;28.13;;;5.10;99.90;;;;;;5068534;28;20550;-64
2022/01/27 05:07:18;;;;;;;52.80;28.37;;;5.20;99.90;;;;;;5072597;28;20241;-64
2022/01/27 05:09:53;;;;;;;45.07;27.13;;;5.10;99.90;;;;;;5072476;28;20247;-64
2022/01/27 05:12:31;;;;;;;45.97;25.30;;;5.10;99.90;;;;;;5072328;28;20487;-64
2022/01/27 05:15:00;;;;;;;41.40;24.60;;;5.10;99.90;;;;;;5072038;28;20567;-64
2022/01/27 05:17:28;;;;;;;41.27;25.03;;;5.10;99.90;;;;;;5072073;28;20480;-64
2022/01/27 05:19:57;;;;;;;43.83;26.30;;;5.10;99.90;;;;;;5072321;28;20547;-65
2022/01/27 05:22:26;;;;;;;42.77;25.10;;;5.10;99.90;;;;;;5072122;28;21077;-65
2022/01/27 05:24:54;;;;;;;40.77;23.20;;;5.10;99.90;;;;;;5072087;28;21044;-65
2022/01/27 05:27:22;;;;;;;40.23;24.93;;;5.10;99.90;;;;;;5072198;28;20565;-65
2022/01/27 05:29:51;;;;;;;39.73;23.37;;;5.10;99.90;;;;;;5071950;28;20243;-64
2022/01/27 05:32:20;;;;;;;41.07;24.57;;;5.10;99.90;;;;;;5072288;28;20493;-62
2022/01/27 05:34:48;;;;;;;37.53;24.20;;;5.10;99.90;;;;;;5071705;28;20473;-62
2022/01/27 05:37:17;;;;;;;39.67;25.57;;;5.10;99.90;;;;;;5072628;28;20474;-62
2022/01/27 05:39:46;;;;;;;35.30;21.43;;;5.10;99.90;;;;;;5071669;28;20499;-62
2022/01/27 05:42:14;;;;;;;39.43;23.43;;;5.10;99.90;;;;;;5072185;28;20462;-62
2022/01/27 05:44:42;;;;;;;45.77;25.63;;;5.10;99.90;;;;;;5071468;28;20257;-62
2022/01/27 05:47:10;;;;;;;40.97;24.50;;;5.10;99.90;;;;;;5072181;28;20461;-62
2022/01/27 05:49:38;;;;;;;40.30;23.53;;;5.10;99.90;;;;;;5071650;28;20245;-62
2022/01/27 05:52:07;;;;;;;39.60;23.37;;;5.20;99.90;;;;;;5071796;28;20261;-62
2022/01/27 05:54:36;;;;;;;43.20;23.47;;;5.10;99.90;;;;;;5070955;28;20484;-62
2022/01/27 05:57:05;;;;;;;41.17;23.60;;;5.20;99.90;;;;;;5071600;28;20257;-62
2022/01/27 05:59:33;;;;;;;37.33;23.17;;;5.20;99.90;;;;;;5071034;28;20466;-62
2022/01/27 06:02:01;;;;;;;36.27;21.10;;;5.10;99.90;;;;;;5071458;28;20269;-62
2022/01/27 06:04:29;;;;;;;38.67;23.07;;;5.20;99.90;;;;;;5070892;28;20238;-62
2022/01/27 06:06:58;;;;;;;38.70;22.53;;;5.20;99.90;;;;;;5071200;28;20479;-62
2022/01/27 06:09:26;;;;;;;38.53;23.30;;;5.20;99.90;;;;;;5070965;28;20520;-62
2022/01/27 06:11:55;;;;;;;38.33;23.33;;;5.20;99.90;;;;;;5071380;28;20519;-62
2022/01/27 06:14:23;;;;;;;41.23;24.47;;;5.20;99.90;;;;;;5070738;28;20330;-62
2022/01/27 06:16:51;;;;;;;36.57;23.17;;;5.20;99.90;;;;;;5071517;28;20828;-62
2022/01/27 06:19:27;;;;;;;41.30;24.37;;;5.20;99.90;;;;;;5070952;28;20478;-64
2022/01/27 06:21:56;;;;;;;40.10;23.77;;;5.20;99.90;;;;;;5071483;28;20481;-64
2022/01/27 06:24:25;;;;;;;40.27;23.60;;;5.20;99.90;;;;;;5070926;28;20535;-65
2022/01/27 06:26:53;;;;;;;40.67;23.47;;;5.20;99.90;;;;;;5069911;28;20556;-64
2022/01/27 06:29:22;;;;;;;37.50;21.67;;;5.20;99.90;;;;;;5070747;28;21021;-65
2022/01/27 06:31:50;;;;;;;37.93;23.63;;;5.20;99.90;;;;;;5068206;28;20531;-65
2022/01/27 06:34:18;;;;;;;36.43;22.60;;;5.20;99.90;;;;;;5071078;28;20477;-65
2022/01/27 06:36:46;;;;;;;37.27;23.77;;;5.20;99.90;;;;;;5071193;28;20476;-65
2022/01/27 06:39:14;;;;;;;35.47;20.03;;;5.20;99.90;;;;;;5070842;28;20485;-64
2022/01/27 06:41:44;;;;;;;40.87;23.80;;;5.20;99.90;;;;;;5070869;28;20548;-64
2022/01/27 06:44:13;;;;;;;36.87;22.57;;;5.20;99.90;;;;;;5070786;28;20464;-65
2022/01/27 06:46:42;;;;;;;41.37;23.73;;;5.20;99.90;;;;;;5070623;28;20457;-65
2022/01/27 06:49:16;;;;;;;39.10;24.20;;;5.20;99.90;;;;;;5068205;28;20480;-64
2022/01/27 06:51:44;;;;;;;42.07;23.43;;;5.20;99.90;;;;;;5070899;28;20472;-64
2022/01/27 06:54:15;;;;;;;41.00;23.03;;;5.20;99.90;;;;;;5070663;28;20464;-64
2022/01/27 06:56:44;;;;;;;39.43;23.60;;;5.30;99.90;;;;;;5070928;28;20477;-65
2022/01/27 06:59:12;;;;;;;37.50;21.90;;;5.20;99.90;;;;;;5070431;28;20838;-65
2022/01/27 07:01:42;;;;;;;36.03;22.03;;;5.20;99.90;;;;;;5070416;28;20489;-64
2022/01/27 07:04:10;;;;;;;34.43;20.90;;;5.20;99.90;;;;;;5069823;28;20469;-65
2022/01/27 07:06:39;;;;;;;39.60;22.03;;;5.30;99.90;;;;;;5070103;28;20460;-64
2022/01/27 07:09:07;;;;;;;35.80;21.33;;;5.30;99.90;;;;;;5066337;28;21034;-64
2022/01/27 07:11:35;;;;;;;34.63;20.30;;;5.30;99.90;;;;;;5070434;28;20849;-64
2022/01/27 07:14:03;;;;;;;35.07;21.37;;;5.30;99.90;;;;;;5070437;28;20500;-65
2022/01/27 07:16:33;;;;;;;37.40;21.37;;;5.30;99.90;;;;;;5070269;28;20501;-64
2022/01/27 07:19:03;;;;;;;36.17;21.83;;;5.30;99.90;;;;;;5069748;28;20530;-64
2022/01/27 07:21:31;;;;;;;34.40;20.13;;;5.20;99.90;;;;;;5069780;28;20496;-65
2022/01/27 07:23:59;;;;;;;35.43;20.83;;;5.30;99.90;;;;;;5070349;28;20469;-64
2022/01/27 07:26:27;;;;;;;40.33;22.80;;;5.30;99.90;;;;;;5070366;28;21077;-64
2022/01/27 07:28:57;;;;;;;35.73;20.43;;;5.30;99.90;;;;;;5070192;28;21070;-65
2022/01/27 07:31:25;;;;;;;33.63;20.93;;;5.30;99.90;;;;;;5069613;28;20473;-64
2022/01/27 07:33:54;;;;;;;33.90;20.20;;;5.30;99.90;;;;;;5054878;28;20481;-64
2022/01/27 07:36:23;;;;;;;33.10;19.70;;;5.40;99.90;;;;;;5066605;28;20992;-65
2022/01/27 07:38:52;;;;;;;35.30;20.40;;;5.40;99.90;;;;;;5072243;28;20556;-64
2022/01/27 07:41:20;;;;;;;30.37;19.27;;;5.30;99.90;;;;;;5076431;28;20446;-64
2022/01/27 07:43:49;;;;;;;34.63;18.93;;;5.30;99.90;;;;;;5076373;28;20847;-64
2022/01/27 07:46:17;;;;;;;34.17;19.27;;;5.40;99.90;;;;;;5076051;28;20439;-65
2022/01/27 07:48:45;;;;;;;34.27;20.03;;;5.30;99.90;;;;;;5071906;28;21068;-64
2022/01/27 07:51:13;;;;;;;32.00;19.20;;;5.30;99.90;;;;;;5074056;28;20464;-62
2022/01/27 07:53:43;;;;;;;38.33;18.73;;;5.30;99.90;;;;;;5073741;28;20322;-62
2022/01/27 07:56:30;;;;;;;26.80;17.03;;;5.30;99.90;;;;;;5073564;28;20477;-62
2022/01/27 07:58:58;;;;;;;29.90;17.73;;;5.30;99.90;;;;;;5073560;28;20472;-62
2022/01/27 08:01:26;;;;;;;28.60;17.07;;;5.30;99.90;;;;;;5074110;28;20715;-62
2022/01/27 08:03:55;;;;;;;28.90;18.20;;;5.30;99.90;;;;;;5073090;28;20240;-62
2022/01/27 08:06:23;;;;;;;28.13;16.90;;;5.30;99.90;;;;;;5074726;28;20460;-62
2022/01/27 08:08:52;;;;;;;29.90;17.40;;;5.40;99.90;;;;;;5072303;28;20576;-62
2022/01/27 08:11:20;;;;;;;27.70;17.10;;;5.40;99.90;;;;;;5072687;28;20882;-62
2022/01/27 08:13:49;;;;;;;24.77;16.10;;;5.40;99.90;;;;;;5072754;28;20511;-62
2022/01/27 08:16:17;;;;;;;29.00;17.07;;;5.40;99.90;;;;;;5072863;28;20465;-62
2022/01/27 08:18:47;;;;;;;28.47;17.17;;;5.40;99.90;;;;;;5072387;28;20507;-62
2022/01/27 08:21:15;;;;;;;26.17;17.00;;;5.40;99.90;;;;;;5071798;28;20480;-62
2022/01/27 08:23:45;;;;;;;26.63;16.77;;;5.40;99.90;;;;;;5072220;28;20477;-62
2022/01/27 08:26:26;;;;;;;26.13;17.03;;;5.40;99.90;;;;;;5072779;28;20481;-62
2022/01/27 08:29:06;;;;;;;28.93;17.13;;;5.40;99.90;;;;;;5072313;28;20489;-62
2022/01/27 08:31:42;;;;;;;24.63;15.53;;;5.40;99.90;;;;;;5071955;28;20499;-62
2022/01/27 08:34:16;;;;;;;27.33;15.90;;;5.50;99.90;;;;;;5071443;28;20571;-62
2022/01/27 08:36:44;;;;;;;24.10;16.40;;;5.40;99.90;;;;;;5072424;28;20547;-62
2022/01/27 08:39:12;;;;;;;26.73;16.87;;;5.40;99.90;;;;;;5072542;28;20466;-62
2022/01/27 08:41:42;;;;;;;22.87;15.50;;;5.50;99.90;;;;;;5071851;28;20472;-62
2022/01/27 08:44:10;;;;;;;23.83;15.57;;;5.50;99.90;;;;;;5073042;28;20473;-62
2022/01/27 08:46:38;;;;;;;22.50;13.37;;;5.50;99.90;;;;;;5055147;28;20512;-62
2022/01/27 08:49:07;;;;;;;21.27;13.67;;;5.50;99.90;;;;;;5072902;28;20473;-62
2022/01/27 08:51:35;;;;;;;21.70;13.67;;;5.50;99.90;;;;;;5072040;28;20231;-62
2022/01/27 08:54:04;;;;;;;22.17;14.13;;;5.50;99.90;;;;;;5072751;28;20480;-62
2022/01/27 08:56:32;;;;;;;18.70;12.93;;;5.50;99.90;;;;;;5072381;28;20992;-62
2022/01/27 08:59:02;;;;;;;19.47;12.60;;;5.60;99.90;;;;;;5072787;28;20310;-62
2022/01/27 09:01:30;;;;;;;19.50;12.67;;;5.60;99.90;;;;;;5071692;28;20235;-63
2022/01/27 09:03:59;;;;;;;18.27;12.07;;;5.70;99.90;;;;;;5072574;28;20470;-62
2022/01/27 09:06:28;;;;;;;17.73;11.53;;;5.60;99.90;;;;;;5072765;28;20476;-62
2022/01/27 09:08:59;;;;;;;17.87;11.83;;;5.60;99.90;;;;;;5072853;28;20822;-62
2022/01/27 09:11:28;;;;;;;17.30;11.73;;;5.70;99.90;;;;;;5072577;28;20557;-62
2022/01/27 09:13:57;;;;;;;19.77;12.63;;;5.70;99.90;;;;;;5072917;28;20493;-62
2022/01/27 09:16:29;;;;;;;18.43;12.30;;;5.70;99.90;;;;;;5072493;28;20473;-63
2022/01/27 09:19:18;;;;;;;18.33;12.53;;;5.70;99.90;;;;;;5071873;28;20469;-62
2022/01/27 09:21:46;;;;;;;15.23;11.23;;;5.70;99.90;;;;;;5071223;28;20840;-62
2022/01/27 09:24:18;;;;;;;16.87;11.13;;;5.70;99.90;;;;;;5071977;28;20480;-62
2022/01/27 09:26:53;;;;;;;15.77;10.67;;;5.70;99.90;;;;;;5071814;28;21061;-62
2022/01/27 09:29:22;;;;;;;13.77;9.27;;;5.70;99.90;;;;;;5072089;28;20549;-63
2022/01/27 09:31:52;;;;;;;13.17;9.17;;;5.70;99.90;;;;;;5072227;28;20475;-62
2022/01/27 09:34:21;;;;;;;12.13;8.37;;;5.80;99.90;;;;;;5072099;28;20239;-62
2022/01/27 09:36:50;;;;;;;13.33;9.43;;;5.80;99.90;;;;;;5071484;28;20469;-62
2022/01/27 09:39:20;;;;;;;11.97;8.63;;;5.90;99.90;;;;;;5069109;28;20500;-62
2022/01/27 09:41:50;;;;;;;13.87;8.73;;;5.90;99.90;;;;;;5071624;28;20531;-62
2022/01/27 09:44:20;;;;;;;12.87;8.30;;;5.90;99.90;;;;;;5071894;28;20455;-62
2022/01/27 09:46:48;;;;;;;16.57;9.70;;;6.00;99.90;;;;;;5071629;28;20303;-62
2022/01/27 09:49:29;;;;;;;17.17;10.00;;;6.00;99.90;;;;;;5071485;28;20226;-62
2022/01/27 09:51:57;;;;;;;16.60;10.93;;;6.10;99.90;;;;;;5066410;28;20476;-62
2022/01/27 09:54:26;;;;;;;15.63;10.50;;;6.10;99.90;;;;;;5063274;28;20238;-62
2022/01/27 09:56:54;;;;;;;18.63;13.10;;;6.10;99.90;;;;;;5063121;28;20319;-62
2022/01/27 09:59:22;;;;;;;28.33;17.47;;;6.10;99.90;;;;;;5063994;28;20322;-62
2022/01/27 10:01:59;;;;;;;43.20;29.07;;;6.20;99.90;;;;;;5063192;28;20641;-62
2022/01/27 10:04:47;;;;;;;32.07;21.17;;;6.20;99.90;;;;;;5064065;28;20243;-62
2022/01/27 10:07:17;;;;;;;25.27;15.60;;;6.20;99.90;;;;;;5064784;28;20270;-62
2022/01/27 10:10:00;;;;;;;25.37;15.33;;;6.20;99.90;;;;;;5063209;28;20245;-62
2022/01/27 10:12:32;;;;;;;26.80;13.70;;;6.20;99.90;;;;;;5064097;28;20503;-63
2022/01/27 10:15:04;;;;;;;26.37;13.90;;;6.30;99.90;;;;;;5063766;28;20270;-62
2022/01/27 10:17:37;;;;;;;22.50;13.83;;;6.30;99.90;;;;;;5064098;28;20270;-62
2022/01/27 10:20:17;;;;;;;21.67;12.80;;;6.40;99.90;;;;;;5064275;28;20629;-62
2022/01/27 10:23:15;;;;;;;22.10;13.20;;;6.40;99.90;;;;;;5062523;28;20257;-63
2022/01/27 10:25:51;;;;;;;22.13;13.30;;;6.40;99.90;;;;;;5062434;28;20322;-62
2022/01/27 10:28:30;;;;;;;22.97;13.20;;;6.50;99.90;;;;;;5063824;28;20477;-62
2022/01/27 10:31:03;;;;;;;24.03;14.10;;;6.50;99.90;;;;;;5063362;28;20243;-62
2022/01/27 10:33:43;;;;;;;23.10;13.90;;;6.50;99.90;;;;;;5063023;28;20516;-62
2022/01/27 10:36:20;;;;;;;24.00;13.83;;;6.50;99.90;;;;;;5063338;28;20321;-62
2022/01/27 10:38:51;;;;;;;20.57;12.57;;;6.60;99.90;;;;;;5064175;28;20689;-62
2022/01/27 10:41:21;;;;;;;29.47;13.53;;;6.70;99.90;;;;;;5063631;28;20241;-62
2022/01/27 10:43:49;;;;;;;27.13;12.70;;;6.70;99.90;;;;;;5063075;28;20238;-62
2022/01/27 10:46:24;;;;;;;26.53;13.03;;;6.70;99.90;;;;;;5064017;28;20231;-62
2022/01/27 10:48:58;;;;;;;25.73;13.03;;;6.70;99.90;;;;;;5063933;28;20313;-62
2022/01/27 10:51:32;;;;;;;29.30;13.60;;;6.80;99.90;;;;;;5063976;28;20726;-62
2022/01/27 10:54:04;;;;;;;24.80;14.00;;;6.80;99.90;;;;;;5062024;28;20247;-62
2022/01/27 10:56:34;;;;;;;24.60;13.60;;;6.90;99.90;;;;;;5063490;28;20330;-62
2022/01/27 10:59:05;;;;;;;25.90;13.10;;;7.00;99.90;;;;;;5063765;28;20715;-62
2022/01/27 11:01:37;;;;;;;27.07;11.70;;;7.00;99.90;;;;;;5062719;28;20291;-62
2022/01/27 11:04:07;;;;;;;26.90;12.50;;;7.10;99.90;;;;;;5062545;28;20243;-62
2022/01/27 11:06:37;;;;;;;29.57;11.30;;;7.00;99.90;;;;;;5064099;28;20234;-62
2022/01/27 11:09:09;;;;;;;28.23;11.53;;;7.00;99.90;;;;;;5065143;28;20292;-62
2022/01/27 11:11:39;;;;;;;30.70;10.53;;;7.10;99.90;;;;;;5065148;28;20353;-62
2022/01/27 11:14:08;;;;;;;26.20;9.27;;;7.20;99.90;;;;;;5064500;28;20337;-62
2022/01/27 11:16:39;;;;;;;29.70;8.70;;;7.20;99.90;;;;;;5064944;28;20370;-62
2022/01/27 11:19:35;;;;;;;23.47;7.97;;;7.20;99.90;;;;;;5065196;28;20618;-62
2022/01/27 11:22:11;;;;;;;28.37;7.70;;;7.30;99.90;;;;;;5064844;28;20263;-62
2022/01/27 11:25:06;;;;;;;25.67;7.57;;;7.30;99.90;;;;;;5064588;28;20357;-62
2022/01/27 11:27:36;;;;;;;24.43;6.87;;;7.30;99.90;;;;;;5064908;28;20250;-62
2022/01/27 11:30:08;;;;;;;30.37;7.00;;;7.40;99.90;;;;;;5065134;28;20260;-62
2022/01/27 11:32:39;;;;;;;29.33;8.80;;;7.40;99.90;;;;;;5064336;28;20703;-62
2022/01/27 11:35:18;;;;;;;29.07;6.90;;;7.40;99.90;;;;;;5064844;28;20266;-61
2022/01/27 11:37:52;;;;;;;26.03;5.37;;;7.50;99.90;;;;;;5064260;28;20238;-62
2022/01/27 11:40:21;;;;;;;32.00;5.53;;;7.60;99.90;;;;;;5060590;28;20661;-62
2022/01/27 11:43:11;;;;;;;25.17;5.20;;;7.60;99.90;;;;;;5064401;28;20259;-63
2022/01/27 11:45:43;;;;;;;19.80;5.03;;;7.60;99.90;;;;;;5064996;28;20309;-62
2022/01/27 11:48:14;;;;;;;21.17;5.13;;;7.60;99.90;;;;;;5064840;28;20235;-62
2022/01/27 11:50:52;;;;;;;29.63;7.40;;;7.70;99.90;;;;;;5063956;28;20241;-62
2022/01/27 11:53:34;;;;;;;30.40;6.37;;;7.70;99.90;;;;;;5066664;28;20230;-62
2022/01/27 11:56:04;;;;;;;26.20;5.60;;;7.70;99.90;;;;;;5062400;28;20247;-62
2022/01/27 11:58:43;;;;;;;25.77;5.97;;;7.80;99.90;;;;;;5064771;28;20248;-62
2022/01/27 12:01:21;;;;;;;26.47;5.50;;;7.90;99.90;;;;;;5064420;28;20243;-62
2022/01/27 12:04:13;;;;;;;31.00;6.00;;;7.90;99.90;;;;;;5064289;28;20278;-62
2022/01/27 12:06:42;;;;;;;23.73;5.13;;;8.00;99.90;;;;;;5062929;28;20242;-62
2022/01/27 12:09:32;;;;;;;25.23;5.03;;;8.00;99.90;;;;;;5051088;28;20768;-62
2022/01/27 12:12:03;;;;;;;23.07;4.83;;;8.00;99.90;;;;;;5059274;28;20339;-63
2022/01/27 12:15:09;;;;;;;26.23;5.73;;;8.00;99.90;;;;;;5054685;28;20271;-62
2022/01/27 12:17:37;;;;;;;21.00;4.97;;;8.00;99.90;;;;;;5058671;28;20284;-62
2022/01/27 12:20:08;;;;;;;19.83;4.80;;;8.10;99.90;;;;;;5052240;28;20239;-62
2022/01/27 12:23:15;;;;;;;27.97;4.87;;;8.20;99.90;;;;;;5055933;28;20269;-62
2022/01/27 12:25:50;;;;;;;30.17;5.10;;;8.10;99.90;;;;;;5022189;28;20647;-62
2022/01/27 12:28:19;;;;;;;25.80;5.07;;;8.10;99.90;;;;;;5026713;28;20264;-62
2022/01/27 12:30:57;;;;;;;20.07;4.70;;;8.10;99.90;;;;;;5049591;28;20242;-61
2022/01/27 12:33:25;;;;;;;28.23;4.90;;;8.10;99.90;;;;;;5069014;28;20774;-63
2022/01/27 12:35:58;;;;;;;18.20;4.53;;;8.20;99.90;;;;;;5067281;28;20235;-62
2022/01/27 12:38:26;;;;;;;25.30;4.20;;;8.40;99.90;;;;;;5072502;28;20321;-62
2022/01/27 12:40:59;;;;;;;28.70;5.30;;;8.30;99.90;;;;;;5072039;28;20255;-62
2022/01/27 12:43:27;;;;;;;23.73;4.30;;;8.30;99.90;;;;;;5069533;28;20266;-62
2022/01/27 12:45:59;;;;;;;22.17;4.20;;;8.30;99.90;;;;;;5072969;28;20641;-61
2022/01/27 12:48:28;;;;;;;21.17;4.40;;;8.30;99.90;;;;;;5072975;28;20243;-62
2022/01/27 12:51:02;;;;;;;22.90;4.90;;;8.30;99.90;;;;;;5073376;28;20227;-62
2022/01/27 12:53:31;;;;;;;21.23;4.20;;;8.30;99.90;;;;;;5072552;28;20258;-62
2022/01/27 12:56:08;;;;;;;24.10;5.27;;;8.20;99.90;;;;;;5072904;28;20261;-62
2022/01/27 12:58:38;;;;;;;24.80;4.13;;;8.30;99.90;;;;;;5072479;28;20729;-62
2022/01/27 13:01:07;;;;;;;22.30;4.63;;;8.20;99.90;;;;;;5071902;28;20723;-62
2022/01/27 13:03:35;;;;;;;29.90;4.63;;;8.20;99.90;;;;;;5072450;28;20239;-62
2022/01/27 13:06:05;;;;;;;22.47;4.80;;;8.20;99.90;;;;;;5072898;28;20235;-62
2022/01/27 13:08:39;;;;;;;20.73;3.60;;;8.20;99.90;;;;;;5072439;28;20274;-61
2022/01/27 13:11:11;;;;;;;18.93;3.80;;;8.20;99.90;;;;;;5072531;28;20253;-61
2022/01/27 13:13:41;;;;;;;21.63;4.13;;;8.20;99.90;;;;;;5072134;28;20235;-61
2022/01/27 13:16:17;;;;;;;22.03;3.70;;;8.10;99.90;;;;;;5072720;28;20238;-61
2022/01/27 13:19:01;;;;;;;22.30;3.53;;;8.20;99.90;;;;;;5071923;28;20684;-61